KVIH

Details ICAO KVIH
Name ROLLA NATIONAL
Region United States
Timezone America/Chicago (UTC-6.0)
Plans Departing 2
Arriving 1
Stats Elevation 1,148 ft / 350 m (AMSL)
Location 38.127434° -91.769516°
Runways 3
Magnetic Variation 0.321° W
Sunrise 2017-12-12 13:15:45 UTC / 2017-12-12 07:15:45 Local
Sunset 2017-12-12 22:48:58 UTC / 2017-12-12 16:48:58 Local
Advertisement - Login to hide

Runways

ID Width Length Bearing (true) Bearing (mag) Surface Threshold Offset Overrun Length
04 100 ft / 30 m 5,499 ft / 1,676 m 46.44° 46.76° Asphalt 213 ft / 65 m 0 ft / 0 m
13 100 ft / 30 m 5,500 ft / 1,676 m 136.65° 136.97° Asphalt 0 ft / 0 m 0 ft / 0 m
18 75 ft / 23 m 5,005 ft / 1,525 m 180.88° 181.20° Asphalt 0 ft / 0 m 0 ft / 0 m
22 100 ft / 30 m 5,499 ft / 1,676 m 226.45° 226.77° Asphalt 0 ft / 0 m 0 ft / 0 m
31 100 ft / 30 m 5,500 ft / 1,676 m 316.66° 316.98° Asphalt 0 ft / 0 m 0 ft / 0 m
36 75 ft / 23 m 5,005 ft / 1,525 m 0.88° 1.20° Asphalt 0 ft / 0 m 0 ft / 0 m

Map

Weather


0- 5 10 15 20 25 30 35+ Temperature / ° C

Clouds and Precipitation
Forecast for 2017-12-13 00:00 UTC. Updated an hour ago

Ground ~20,000 ft ~40,000 ft Winds

METAR

KVIH 121953Z AUTO 28008KT 10SM CLR 01/M14 A3019 RMK AO2 SLP230 T00111139

TAF

Not found

Frequencies

Recorded 119.02 MHz ASOS
Unicom 123.00 MHz CTAF/UNICOM
Warning: Do not use this data for real-world aviation or navigation. No guarantee of current accuracy is given.